Time;durP1;ratioP1;P1;durP2;ratioP2;P2;SDS_P1;SDS_P2;PMS_P1;PMS_P2;Temp;Humidity;BMP_temperature;BMP_pressure;BME280_temperature;BME280_humidity;BME280_pressure;Samples;Min_cycle;Max_cycle;Signal;HPM_P1;HPM_P2
2024/04/08 00:01:45;;;;;;;;;;;;;;;;;;6150107;23;20017;-68
2024/04/08 00:04:10;;;;;;;4.97;2.22;;;;;;;;;;6140400;23;19967;-68
2024/04/08 00:06:36;;;;;;;6.03;2.55;;;;;;;;;;6141053;23;20063;-69
2024/04/08 00:09:02;;;;;;;5.95;2.28;;;;;;;;;;6148707;23;20025;-69
2024/04/08 00:11:27;;;;;;;5.50;1.95;;;;;;;;;;6140073;23;20031;-68
2024/04/08 00:13:53;;;;;;;4.97;2.40;;;;;;;;;;6149217;23;20025;-68
2024/04/08 00:16:18;;;;;;;6.18;1.98;;;;;;;;;;6141747;23;20410;-68
2024/04/08 00:18:43;;;;;;;7.93;2.10;;;;;;;;;;6143305;23;20025;-69
2024/04/08 00:21:09;;;;;;;5.55;2.13;;;;;;;;;;6144489;23;20021;-68
2024/04/08 00:23:34;;;;;;;6.68;2.28;;;;;;;;;;6141379;23;20032;-68
2024/04/08 00:26:04;;;;;;;5.07;2.17;;;;;;;;;;6146719;23;20100;-69
2024/04/08 00:28:29;;;;;;;5.85;2.13;;;;;;;;;;6167216;23;20032;-68
2024/04/08 00:31:02;;;;;;;7.18;2.45;;;;;;;;;;6148338;23;20456;-69
2024/04/08 00:33:27;;;;;;;5.10;1.92;;;;;;;;;;6143559;23;20036;-68
2024/04/08 00:35:53;;;;;;;5.57;1.95;;;;;;;;;;6136601;23;20025;-69
2024/04/08 00:38:18;;;;;;;7.25;2.03;;;;;;;;;;6148713;23;20025;-68
2024/04/08 00:40:44;;;;;;;3.50;1.77;;;;;;;;;;6142863;23;20021;-70
2024/04/08 00:43:09;;;;;;;6.95;2.30;;;;;;;;;;6150050;23;20021;-69
2024/04/08 00:45:36;;;;;;;8.32;2.03;;;;;;;;;;6151067;23;20023;-68
2024/04/08 00:48:01;;;;;;;6.55;1.92;;;;;;;;;;6139376;23;20367;-69
2024/04/08 00:50:27;;;;;;;5.70;2.13;;;;;;;;;;6146083;23;20028;-68
2024/04/08 00:52:54;;;;;;;4.78;1.70;;;;;;;;;;6143727;23;20027;-69
2024/04/08 00:55:20;;;;;;;6.38;2.03;;;;;;;;;;6151088;23;20032;-68
2024/04/08 00:57:46;;;;;;;5.93;2.08;;;;;;;;;;6150605;23;20103;-69
2024/04/08 01:00:12;;;;;;;4.90;1.80;;;;;;;;;;6144073;23;20304;-68
2024/04/08 01:02:38;;;;;;;5.32;2.28;;;;;;;;;;6145604;23;20025;-68
2024/04/08 01:05:05;;;;;;;3.55;1.80;;;;;;;;;;6137993;23;20507;-69
2024/04/08 01:07:32;;;;;;;5.95;2.28;;;;;;;;;;6151462;23;20021;-68
2024/04/08 01:09:58;;;;;;;6.28;2.00;;;;;;;;;;6144378;23;20032;-68
2024/04/08 01:12:23;;;;;;;3.85;1.60;;;;;;;;;;6149826;23;20286;-70
2024/04/08 01:14:49;;;;;;;9.02;1.60;;;;;;;;;;6126202;23;20064;-69
2024/04/08 01:17:16;;;;;;;5.97;2.00;;;;;;;;;;6137969;23;20028;-69
2024/04/08 01:19:42;;;;;;;7.07;1.90;;;;;;;;;;6122314;23;20032;-68
2024/04/08 01:22:08;;;;;;;2.78;1.48;;;;;;;;;;6143585;23;20781;-71
2024/04/08 01:24:33;;;;;;;5.63;1.70;;;;;;;;;;6150223;23;20036;-71
2024/04/08 01:27:00;;;;;;;5.15;1.63;;;;;;;;;;6150900;23;20021;-70
2024/04/08 01:29:25;;;;;;;4.15;1.38;;;;;;;;;;6143840;23;20348;-70
2024/04/08 01:31:51;;;;;;;3.88;1.80;;;;;;;;;;6149730;23;20031;-70
2024/04/08 01:34:16;;;;;;;6.90;1.73;;;;;;;;;;6143219;23;20101;-71
2024/04/08 01:36:41;;;;;;;4.05;1.50;;;;;;;;;;6125772;23;20111;-71
2024/04/08 01:39:08;;;;;;;4.97;1.75;;;;;;;;;;6149786;23;20427;-69
2024/04/08 01:41:33;;;;;;;5.35;1.98;;;;;;;;;;6138990;23;20028;-71
2024/04/08 01:43:58;;;;;;;5.10;1.90;;;;;;;;;;6120960;23;20017;-69
2024/04/08 01:47:35;;;;;;;4.22;1.70;;;;;;;;;;5493593;25;20568;-69
2024/04/08 01:50:02;;;;;;;4.32;1.90;;;;;;;;;;5456637;26;20002;-69
2024/04/08 01:52:29;;;;;;;8.32;1.90;;;;;;;;;;5462842;26;20347;-69
2024/04/08 01:54:55;;;;;;;3.05;1.70;;;;;;;;;;5476111;26;20014;-71
2024/04/08 01:57:22;;;;;;;4.07;2.05;;;;;;;;;;5477332;26;20002;-69
2024/04/08 01:59:48;;;;;;;4.47;1.90;;;;;;;;;;5493448;26;20009;-69
2024/04/08 02:02:15;;;;;;;4.18;1.77;;;;;;;;;;5490474;26;19998;-70
2024/04/08 02:04:41;;;;;;;5.32;2.38;;;;;;;;;;5454006;26;20002;-69
2024/04/08 02:07:08;;;;;;;3.20;1.90;;;;;;;;;;5471705;26;20404;-69
2024/04/08 02:09:35;;;;;;;5.22;2.03;;;;;;;;;;5458320;26;20010;-70
2024/04/08 02:12:02;;;;;;;4.95;2.28;;;;;;;;;;5475196;26;20010;-69
2024/04/08 02:14:28;;;;;;;6.40;2.30;;;;;;;;;;5470138;26;20002;-70
2024/04/08 02:16:55;;;;;;;6.50;2.20;;;;;;;;;;5471499;26;20016;-69
2024/04/08 02:19:25;;;;;;;4.18;2.00;;;;;;;;;;5459694;26;20411;-69
2024/04/08 02:21:51;;;;;;;6.65;2.58;;;;;;;;;;5486604;26;20013;-70
2024/04/08 02:24:18;;;;;;;5.28;2.65;;;;;;;;;;5486071;26;22078;-70
2024/04/08 02:26:45;;;;;;;4.72;2.45;;;;;;;;;;5490002;26;20006;-69
2024/04/08 02:29:12;;;;;;;4.63;2.50;;;;;;;;;;5459455;25;20021;-70
2024/04/08 02:31:38;;;;;;;5.10;2.42;;;;;;;;;;5465041;26;19997;-69
2024/04/08 02:34:05;;;;;;;6.75;2.70;;;;;;;;;;5476582;26;20018;-70
2024/04/08 02:36:31;;;;;;;7.03;2.58;;;;;;;;;;5485778;26;20446;-73
2024/04/08 02:38:58;;;;;;;5.15;2.40;;;;;;;;;;5474643;26;20018;-69
2024/04/08 02:41:24;;;;;;;6.95;2.53;;;;;;;;;;5460146;26;19998;-72
2024/04/08 02:43:51;;;;;;;7.93;3.17;;;;;;;;;;5484188;26;20021;-70
2024/04/08 02:46:17;;;;;;;6.30;2.70;;;;;;;;;;5478434;26;19998;-71
2024/04/08 02:48:44;;;;;;;5.22;2.63;;;;;;;;;;5463345;26;20009;-70
2024/04/08 02:51:10;;;;;;;5.65;2.90;;;;;;;;;;5466179;25;21307;-69
2024/04/08 02:53:37;;;;;;;7.95;3.25;;;;;;;;;;5480980;26;20469;-72
2024/04/08 02:56:07;;;;;;;6.18;3.10;;;;;;;;;;5448781;26;20011;-72
2024/04/08 02:58:33;;;;;;;6.40;3.15;;;;;;;;;;5423766;26;20805;-70
2024/04/08 03:01:07;;;;;;;6.00;2.92;;;;;;;;;;5447015;26;20044;-69
2024/04/08 03:03:34;;;;;;;7.03;2.97;;;;;;;;;;5436204;26;20002;-70
2024/04/08 03:06:09;;;;;;;5.32;3.15;;;;;;;;;;5478074;26;20013;-69
2024/04/08 03:08:36;;;;;;;5.03;3.00;;;;;;;;;;5454358;26;19998;-70
2024/04/08 03:11:03;;;;;;;10.05;3.10;;;;;;;;;;5451422;26;20015;-70
2024/04/08 03:13:30;;;;;;;5.55;2.75;;;;;;;;;;5470777;26;19998;-70
2024/04/08 03:15:56;;;;;;;6.38;3.35;;;;;;;;;;5461182;26;19998;-71
2024/04/08 03:18:23;;;;;;;6.60;3.50;;;;;;;;;;5471517;26;20680;-71
2024/04/08 03:20:56;;;;;;;7.15;3.08;;;;;;;;;;5437491;26;20013;-71
2024/04/08 03:23:23;;;;;;;7.50;3.03;;;;;;;;;;5477665;26;20010;-69
2024/04/08 03:25:59;;;;;;;9.90;3.45;;;;;;;;;;5466419;26;19998;-69
2024/04/08 03:28:26;;;;;;;5.57;3.22;;;;;;;;;;5456391;26;19994;-70
2024/04/08 03:30:52;;;;;;;6.72;3.78;;;;;;;;;;5472072;26;20002;-70
2024/04/08 03:33:20;;;;;;;7.22;3.40;;;;;;;;;;5462075;26;20760;-69
2024/04/08 03:35:47;;;;;;;6.50;3.85;;;;;;;;;;5477706;26;20346;-69
2024/04/08 03:38:14;;;;;;;6.38;3.65;;;;;;;;;;5456938;26;20377;-72
2024/04/08 03:40:41;;;;;;;7.20;3.53;;;;;;;;;;5457044;26;20014;-69
2024/04/08 03:43:07;;;;;;;7.30;4.00;;;;;;;;;;5443492;26;20017;-70
2024/04/08 03:45:34;;;;;;;7.60;3.65;;;;;;;;;;5449735;26;20674;-69
2024/04/08 03:48:00;;;;;;;7.80;3.63;;;;;;;;;;5460031;26;20003;-70
2024/04/08 03:50:28;;;;;;;6.88;3.65;;;;;;;;;;5439950;26;20002;-70
2024/04/08 03:52:54;;;;;;;5.90;3.40;;;;;;;;;;5460859;26;20459;-68
2024/04/08 03:55:25;;;;;;;6.18;2.95;;;;;;;;;;5469935;26;20021;-69
2024/04/08 03:57:51;;;;;;;6.55;3.17;;;;;;;;;;5469743;26;19999;-69
2024/04/08 04:00:18;;;;;;;8.07;3.58;;;;;;;;;;5470946;26;20017;-70
2024/04/08 04:02:45;;;;;;;5.70;3.40;;;;;;;;;;5463145;26;20006;-69
2024/04/08 04:05:11;;;;;;;8.63;3.78;;;;;;;;;;5475808;26;20002;-69
2024/04/08 04:07:38;;;;;;;5.03;3.40;;;;;;;;;;5477525;26;19998;-69
2024/04/08 04:10:04;;;;;;;7.03;3.85;;;;;;;;;;5463490;26;20010;-70
2024/04/08 04:12:41;;;;;;;7.40;4.00;;;;;;;;;;5474723;26;20013;-68
2024/04/08 04:15:12;;;;;;;6.75;3.80;;;;;;;;;;5433749;26;20009;-68
2024/04/08 04:17:39;;;;;;;5.10;3.13;;;;;;;;;;5469105;26;19995;-68
2024/04/08 04:20:09;;;;;;;6.85;3.90;;;;;;;;;;5432294;26;20038;-68
2024/04/08 04:22:36;;;;;;;10.35;3.90;;;;;;;;;;5468231;26;20006;-70
2024/04/08 04:25:03;;;;;;;8.02;3.70;;;;;;;;;;5456885;26;20009;-69
2024/04/08 04:27:29;;;;;;;9.18;4.25;;;;;;;;;;5466373;26;20608;-69
2024/04/08 04:29:56;;;;;;;6.85;3.50;;;;;;;;;;5476629;26;20002;-69
2024/04/08 04:32:22;;;;;;;6.10;3.30;;;;;;;;;;5467395;26;20074;-70
2024/04/08 04:34:49;;;;;;;6.13;3.38;;;;;;;;;;5455903;26;19998;-69
2024/04/08 04:37:16;;;;;;;7.22;3.22;;;;;;;;;;5466658;26;20013;-70
2024/04/08 04:39:42;;;;;;;8.07;3.58;;;;;;;;;;5449598;26;20500;-70
2024/04/08 04:42:09;;;;;;;5.60;3.33;;;;;;;;;;5474321;26;20452;-71
2024/04/08 04:44:35;;;;;;;5.28;3.05;;;;;;;;;;5454472;26;20005;-71
2024/04/08 04:47:02;;;;;;;5.20;3.05;;;;;;;;;;5475189;26;20006;-70
2024/04/08 04:49:28;;;;;;;7.00;3.42;;;;;;;;;;5445337;26;20013;-70
2024/04/08 04:51:55;;;;;;;8.20;3.40;;;;;;;;;;5456264;26;20013;-69
2024/04/08 04:54:21;;;;;;;8.50;3.55;;;;;;;;;;5435458;26;20472;-71
2024/04/08 04:56:48;;;;;;;8.02;3.88;;;;;;;;;;5433472;26;19998;-70
2024/04/08 04:59:14;;;;;;;6.72;3.40;;;;;;;;;;5476271;26;20071;-70
2024/04/08 05:01:41;;;;;;;5.93;3.30;;;;;;;;;;5430743;26;19998;-71
2024/04/08 05:04:08;;;;;;;7.13;3.47;;;;;;;;;;5432226;26;20007;-71
2024/04/08 05:06:34;;;;;;;6.20;4.07;;;;;;;;;;5462739;26;20067;-70
2024/04/08 05:09:02;;;;;;;9.68;4.00;;;;;;;;;;5454302;26;20081;-69
2024/04/08 05:11:29;;;;;;;8.40;3.40;;;;;;;;;;5442854;26;20406;-70
2024/04/08 05:13:55;;;;;;;7.63;3.70;;;;;;;;;;5459015;26;20836;-70
2024/04/08 05:16:22;;;;;;;6.57;3.53;;;;;;;;;;5469020;26;20021;-70
2024/04/08 05:18:48;;;;;;;8.52;3.50;;;;;;;;;;5461191;26;20866;-70
2024/04/08 05:21:15;;;;;;;7.78;3.65;;;;;;;;;;5437109;26;20754;-69
2024/04/08 05:23:44;;;;;;;8.57;3.95;;;;;;;;;;5475306;26;19994;-70
2024/04/08 05:26:11;;;;;;;5.15;3.25;;;;;;;;;;5466134;26;20002;-70
2024/04/08 05:28:38;;;;;;;8.95;3.78;;;;;;;;;;5474894;26;20622;-70
2024/04/08 05:31:04;;;;;;;5.85;4.18;;;;;;;;;;5475303;26;19998;-71
2024/04/08 05:33:31;;;;;;;7.55;3.70;;;;;;;;;;5444406;26;20550;-69
2024/04/08 05:35:57;;;;;;;10.00;4.40;;;;;;;;;;5468625;26;20399;-70
2024/04/08 05:38:24;;;;;;;9.15;3.60;;;;;;;;;;5435199;26;20004;-69
2024/04/08 05:40:51;;;;;;;12.00;4.30;;;;;;;;;;5455524;26;20601;-69
2024/04/08 05:43:18;;;;;;;8.15;4.00;;;;;;;;;;5438960;26;20406;-69
2024/04/08 05:45:46;;;;;;;6.90;4.15;;;;;;;;;;5429157;26;20014;-70
2024/04/08 05:48:14;;;;;;;9.00;4.35;;;;;;;;;;5463966;26;20013;-70
2024/04/08 05:50:41;;;;;;;6.20;3.88;;;;;;;;;;5459926;26;20006;-69
2024/04/08 05:53:07;;;;;;;5.57;3.25;;;;;;;;;;5474184;26;20013;-70
2024/04/08 05:55:34;;;;;;;7.32;3.97;;;;;;;;;;5465918;26;20454;-70
2024/04/08 05:58:02;;;;;;;10.07;4.38;;;;;;;;;;5475465;26;19998;-69
2024/04/08 06:00:29;;;;;;;;;;;;;;;;;;5473167;26;20002;-70
2024/04/08 06:02:55;;;;;;;9.15;4.90;;;;;;;;;;5458828;26;19931;-70
2024/04/08 06:05:24;;;;;;;8.25;4.35;;;;;;;;;;5468812;26;20110;-70
2024/04/08 06:07:50;;;;;;;7.53;4.55;;;;;;;;;;5443103;26;20066;-70
2024/04/08 06:10:20;;;;;;;10.60;4.22;;;;;;;;;;5473113;26;20050;-70
2024/04/08 06:12:46;;;;;;;8.50;4.35;;;;;;;;;;5474554;26;20070;-70
2024/04/08 06:15:14;;;;;;;6.22;4.07;;;;;;;;;;5403950;26;20007;-69
2024/04/08 06:17:41;;;;;;;7.33;3.23;;;;;;;;;;5459312;26;20002;-69
2024/04/08 06:20:09;;;;;;;9.27;4.40;;;;;;;;;;5458715;26;20025;-70
2024/04/08 06:22:35;;;;;;;8.43;4.28;;;;;;;;;;5474448;26;20024;-70
2024/04/08 06:25:02;;;;;;;7.10;4.05;;;;;;;;;;5473744;26;19998;-70
2024/04/08 06:27:29;;;;;;;8.55;4.35;;;;;;;;;;5462770;26;20013;-71
2024/04/08 06:29:55;;;;;;;8.40;4.30;;;;;;;;;;5476049;26;19995;-70
2024/04/08 06:32:22;;;;;;;6.60;4.22;;;;;;;;;;5425161;26;20330;-70
2024/04/08 06:34:48;;;;;;;11.45;4.75;;;;;;;;;;5478873;26;20009;-70
2024/04/08 06:37:15;;;;;;;8.38;4.07;;;;;;;;;;5468408;26;20081;-70
2024/04/08 06:39:42;;;;;;;10.75;4.10;;;;;;;;;;5479011;26;20461;-69
2024/04/08 06:42:18;;;;;;;7.53;3.78;;;;;;;;;;5427594;26;19999;-69
2024/04/08 06:44:48;;;;;;;8.25;4.20;;;;;;;;;;5458873;26;20663;-70
2024/04/08 06:47:15;;;;;;;9.75;4.90;;;;;;;;;;5481849;26;20012;-70
2024/04/08 06:49:42;;;;;;;8.20;3.55;;;;;;;;;;5482631;26;20001;-70
2024/04/08 06:52:09;;;;;;;10.60;3.72;;;;;;;;;;5501391;26;20071;-70
2024/04/08 06:54:35;;;;;;;6.55;3.80;;;;;;;;;;5477752;26;20006;-68
2024/04/08 06:57:02;;;;;;;7.72;3.53;;;;;;;;;;5445173;26;20003;-70
2024/04/08 06:59:28;;;;;;;5.70;3.08;;;;;;;;;;5456089;26;20013;-69
2024/04/08 07:01:55;;;;;;;6.57;3.25;;;;;;;;;;5467247;26;19994;-69
2024/04/08 07:04:22;;;;;;;5.60;3.22;;;;;;;;;;5477746;26;20017;-70
2024/04/08 07:06:49;;;;;;;8.77;3.28;;;;;;;;;;5471912;26;19998;-70
2024/04/08 07:09:15;;;;;;;6.32;3.33;;;;;;;;;;5435520;26;20026;-69
2024/04/08 07:11:42;;;;;;;6.55;3.15;;;;;;;;;;5467897;26;20010;-70
2024/04/08 07:14:09;;;;;;;4.60;2.53;;;;;;;;;;5426453;26;20129;-69
2024/04/08 07:16:36;;;;;;;10.00;3.55;;;;;;;;;;5476478;26;20005;-69
2024/04/08 07:19:03;;;;;;;7.20;3.05;;;;;;;;;;5468433;26;20006;-69
2024/04/08 07:21:29;;;;;;;7.07;3.30;;;;;;;;;;5445699;26;20418;-68
2024/04/08 07:23:56;;;;;;;6.28;3.45;;;;;;;;;;5468521;26;20003;-69
2024/04/08 07:26:22;;;;;;;8.85;3.67;;;;;;;;;;5460481;26;20006;-69
2024/04/08 07:28:50;;;;;;;8.90;3.20;;;;;;;;;;5469157;26;20772;-68
2024/04/08 07:31:17;;;;;;;7.28;3.30;;;;;;;;;;5436768;26;20319;-68
2024/04/08 07:33:44;;;;;;;12.13;3.97;;;;;;;;;;5475792;26;20918;-69
2024/04/08 07:36:10;;;;;;;6.35;3.58;;;;;;;;;;5475698;26;20006;-68
2024/04/08 07:38:37;;;;;;;6.30;3.50;;;;;;;;;;5468302;26;19994;-69
2024/04/08 07:41:23;;;;;;;9.32;3.95;;;;;;;;;;5449501;26;20009;-70
2024/04/08 07:43:50;;;;;;;8.32;4.15;;;;;;;;;;5464542;26;20013;-68
2024/04/08 07:46:16;;;;;;;7.28;3.13;;;;;;;;;;5477373;26;20048;-68
2024/04/08 07:48:45;;;;;;;6.65;3.40;;;;;;;;;;5445136;26;21222;-69
2024/04/08 07:51:12;;;;;;;6.93;3.42;;;;;;;;;;5476821;26;19998;-69
2024/04/08 07:53:38;;;;;;;4.80;3.38;;;;;;;;;;5464498;26;20017;-69
2024/04/08 07:56:05;;;;;;;6.80;3.20;;;;;;;;;;5432210;26;20035;-69
2024/04/08 07:58:32;;;;;;;8.30;3.63;;;;;;;;;;5453174;26;20676;-70
2024/04/08 08:00:59;;;;;;;6.57;3.72;;;;;;;;;;5451630;26;20020;-69
2024/04/08 08:03:26;;;;;;;7.82;3.35;;;;;;;;;;5471011;26;20495;-69
2024/04/08 08:05:56;;;;;;;8.68;4.05;;;;;;;;;;5468721;26;20084;-69
2024/04/08 08:08:26;;;;;;;8.65;3.78;;;;;;;;;;5414061;26;20043;-69
2024/04/08 08:10:52;;;;;;;6.95;3.47;;;;;;;;;;5449806;26;20002;-70
2024/04/08 08:13:19;;;;;;;8.98;3.60;;;;;;;;;;5464058;26;19994;-69
2024/04/08 08:15:55;;;;;;;6.70;3.58;;;;;;;;;;5478274;26;20002;-70
2024/04/08 08:18:22;;;;;;;7.53;3.67;;;;;;;;;;5468082;26;20767;-70
2024/04/08 08:20:49;;;;;;;7.95;3.63;;;;;;;;;;5467366;26;20338;-69
2024/04/08 08:23:16;;;;;;;7.72;3.78;;;;;;;;;;5467730;26;20433;-71
2024/04/08 08:25:42;;;;;;;8.88;3.30;;;;;;;;;;5464603;26;20002;-68
2024/04/08 08:28:09;;;;;;;6.05;2.40;;;;;;;;;;5477280;26;19995;-70
2024/04/08 08:30:35;;;;;;;6.28;3.17;;;;;;;;;;5433942;26;20028;-70
2024/04/08 08:33:02;;;;;;;6.68;3.08;;;;;;;;;;5424216;26;19998;-69
2024/04/08 08:35:30;;;;;;;5.45;3.55;;;;;;;;;;5464915;26;20084;-71
2024/04/08 08:37:57;;;;;;;;;;;;;;;;;;5448510;26;20065;-71
2024/04/08 08:40:24;;;;;;;8.25;3.15;;;;;;;;;;5443926;26;19923;-71
2024/04/08 08:42:50;;;;;;;5.40;3.00;;;;;;;;;;5435006;26;20017;-69
2024/04/08 08:45:17;;;;;;;6.50;2.50;;;;;;;;;;5465813;26;20010;-70
2024/04/08 08:47:44;;;;;;;5.28;2.50;;;;;;;;;;5466088;26;19998;-70
2024/04/08 08:50:11;;;;;;;9.00;3.17;;;;;;;;;;5446453;26;20079;-70
2024/04/08 08:52:37;;;;;;;5.63;2.60;;;;;;;;;;5471630;26;19998;-69
2024/04/08 08:55:04;;;;;;;5.57;2.55;;;;;;;;;;5464283;26;20002;-71
2024/04/08 08:57:32;;;;;;;6.60;2.58;;;;;;;;;;5476789;26;20013;-69
2024/04/08 09:00:02;;;;;;;5.35;2.53;;;;;;;;;;5467694;26;20078;-70
2024/04/08 09:02:30;;;;;;;7.90;2.92;;;;;;;;;;5474725;26;20504;-71
2024/04/08 09:04:57;;;;;;;5.88;2.70;;;;;;;;;;5467125;26;20010;-70
2024/04/08 09:07:23;;;;;;;6.47;2.58;;;;;;;;;;5455222;26;19998;-70
2024/04/08 09:09:57;;;;;;;8.80;3.35;;;;;;;;;;5442724;26;20006;-69
2024/04/08 09:12:24;;;;;;;6.65;2.80;;;;;;;;;;5435857;26;20012;-71
2024/04/08 09:14:51;;;;;;;8.80;3.10;;;;;;;;;;5475292;26;20019;-70
2024/04/08 09:17:18;;;;;;;6.28;2.85;;;;;;;;;;5457223;26;19999;-70
2024/04/08 09:19:45;;;;;;;7.55;3.65;;;;;;;;;;5440103;26;20445;-69
2024/04/08 09:22:11;;;;;;;9.63;3.88;;;;;;;;;;5465184;26;19994;-69
2024/04/08 09:24:38;;;;;;;8.32;4.30;;;;;;;;;;5447916;26;20014;-69
2024/04/08 09:27:04;;;;;;;7.72;4.57;;;;;;;;;;5447606;26;19999;-71
2024/04/08 09:29:32;;;;;;;15.45;6.82;;;;;;;;;;5457717;26;20014;-69
2024/04/08 09:32:00;;;;;;;14.63;7.13;;;;;;;;;;5466397;26;20377;-70
2024/04/08 09:34:30;;;;;;;;;;;;;;;;;;5467247;26;22068;-70
2024/04/08 09:36:56;;;;;;;13.32;6.78;;;;;;;;;;5463604;26;19931;-70
2024/04/08 09:39:23;;;;;;;14.85;7.03;;;;;;;;;;5474234;26;20002;-70
2024/04/08 09:41:51;;;;;;;15.43;7.53;;;;;;;;;;5429031;26;20006;-69
2024/04/08 09:44:18;;;;;;;11.88;5.03;;;;;;;;;;5419845;26;20244;-69
2024/04/08 09:46:45;;;;;;;11.15;5.90;;;;;;;;;;5453323;26;20018;-70
2024/04/08 09:49:12;;;;;;;12.00;5.47;;;;;;;;;;5459064;26;20040;-70
2024/04/08 09:51:50;;;;;;;16.08;7.63;;;;;;;;;;5474307;26;19998;-69
2024/04/08 09:54:16;;;;;;;11.47;6.37;;;;;;;;;;5465590;26;20003;-70
2024/04/08 09:56:44;;;;;;;10.52;5.45;;;;;;;;;;5475131;26;20458;-68
2024/04/08 09:59:15;;;;;;;13.25;6.30;;;;;;;;;;5471305;26;20048;-70
2024/04/08 10:01:43;;;;;;;9.38;5.35;;;;;;;;;;5455588;26;19998;-70
2024/04/08 10:04:13;;;;;;;10.63;5.15;;;;;;;;;;5470271;26;20071;-70
2024/04/08 10:06:41;;;;;;;11.63;6.03;;;;;;;;;;5460508;26;20006;-69
2024/04/08 10:09:09;;;;;;;13.07;6.07;;;;;;;;;;5478848;26;20039;-70
2024/04/08 10:11:36;;;;;;;8.77;5.18;;;;;;;;;;5458713;26;20042;-69
2024/04/08 10:14:02;;;;;;;12.75;6.80;;;;;;;;;;5436597;26;20007;-70
2024/04/08 10:16:29;;;;;;;12.40;7.53;;;;;;;;;;5456729;26;19998;-70
2024/04/08 10:18:56;;;;;;;11.57;6.75;;;;;;;;;;5468148;26;20009;-69
2024/04/08 10:21:25;;;;;;;10.05;7.25;;;;;;;;;;5478634;26;20047;-69
2024/04/08 10:23:52;;;;;;;8.90;6.45;;;;;;;;;;5468291;26;19998;-71
2024/04/08 10:26:22;;;;;;;10.57;8.00;;;;;;;;;;5478369;26;20013;-69
2024/04/08 10:28:49;;;;;;;12.13;7.35;;;;;;;;;;5468846;26;20288;-70
2024/04/08 10:31:18;;;;;;;14.43;8.13;;;;;;;;;;5462085;26;20006;-69
2024/04/08 10:33:45;;;;;;;12.50;9.00;;;;;;;;;;5476074;26;20529;-70
2024/04/08 10:36:11;;;;;;;9.57;7.25;;;;;;;;;;5463751;26;20018;-71
2024/04/08 10:38:38;;;;;;;9.80;7.47;;;;;;;;;;5426858;26;20011;-70
2024/04/08 10:41:05;;;;;;;12.45;8.80;;;;;;;;;;5469779;26;20461;-71
2024/04/08 10:43:33;;;;;;;14.00;9.50;;;;;;;;;;5449249;26;19995;-72
2024/04/08 10:46:01;;;;;;;12.45;8.35;;;;;;;;;;5428662;26;19999;-70
2024/04/08 10:48:28;;;;;;;11.30;7.55;;;;;;;;;;5435554;26;20063;-70
2024/04/08 10:50:55;;;;;;;8.55;6.32;;;;;;;;;;5477532;26;20472;-71
2024/04/08 10:53:21;;;;;;;11.32;7.10;;;;;;;;;;5440525;26;20066;-71
2024/04/08 10:55:48;;;;;;;12.57;8.02;;;;;;;;;;5434050;26;20006;-71
2024/04/08 10:58:14;;;;;;;13.55;7.95;;;;;;;;;;5458465;26;20013;-72
2024/04/08 11:00:41;;;;;;;11.15;7.50;;;;;;;;;;5430015;26;20009;-70
2024/04/08 11:03:08;;;;;;;11.13;7.13;;;;;;;;;;5441186;26;20019;-70
2024/04/08 11:05:35;;;;;;;7.78;6.10;;;;;;;;;;5436107;26;20039;-70
2024/04/08 11:08:01;;;;;;;8.15;5.70;;;;;;;;;;5468208;26;20331;-72
2024/04/08 11:10:28;;;;;;;6.82;5.05;;;;;;;;;;5443416;26;19995;-70
2024/04/08 11:12:55;;;;;;;6.80;4.93;;;;;;;;;;5457060;26;20009;-73
2024/04/08 11:15:22;;;;;;;7.18;4.85;;;;;;;;;;5465460;26;20006;-71
2024/04/08 11:17:56;;;;;;;10.93;6.03;;;;;;;;;;5457432;26;20021;-72
2024/04/08 11:20:25;;;;;;;8.35;5.45;;;;;;;;;;5445750;26;20020;-72
2024/04/08 11:22:52;;;;;;;8.48;6.40;;;;;;;;;;5469491;26;20347;-72
2024/04/08 11:25:18;;;;;;;9.10;6.28;;;;;;;;;;5450809;26;20697;-71
2024/04/08 11:27:45;;;;;;;7.35;5.32;;;;;;;;;;5472029;26;20002;-71
2024/04/08 11:30:16;;;;;;;8.38;6.18;;;;;;;;;;5468061;26;19998;-71
2024/04/08 11:32:43;;;;;;;8.98;5.82;;;;;;;;;;5437914;26;20003;-71
2024/04/08 11:35:10;;;;;;;10.30;6.20;;;;;;;;;;5460822;26;20075;-70
2024/04/08 11:37:36;;;;;;;8.35;6.50;;;;;;;;;;5474846;26;20632;-72
2024/04/08 11:40:04;;;;;;;11.95;7.55;;;;;;;;;;5427765;26;20002;-71
2024/04/08 11:42:31;;;;;;;7.57;6.18;;;;;;;;;;5460636;26;20009;-71
2024/04/08 11:44:59;;;;;;;9.93;6.53;;;;;;;;;;5469702;26;20002;-71
2024/04/08 11:47:32;;;;;;;11.00;8.10;;;;;;;;;;5466751;26;20013;-71
2024/04/08 11:49:59;;;;;;;10.35;7.55;;;;;;;;;;5439493;26;20018;-72
2024/04/08 11:52:25;;;;;;;9.60;8.65;;;;;;;;;;5463231;26;20346;-73
2024/04/08 11:54:52;;;;;;;11.70;8.90;;;;;;;;;;5462354;26;20949;-73
2024/04/08 11:57:27;;;;;;;11.38;8.98;;;;;;;;;;5468250;26;19994;-72
2024/04/08 11:59:54;;;;;;;9.05;8.10;;;;;;;;;;5437075;26;20006;-72
2024/04/08 12:02:21;;;;;;;12.00;8.80;;;;;;;;;;5478934;26;20066;-72
2024/04/08 12:04:48;;;;;;;10.60;9.50;;;;;;;;;;5440785;26;20624;-73
2024/04/08 12:07:15;;;;;;;12.63;9.40;;;;;;;;;;5474364;26;20021;-72
2024/04/08 12:09:42;;;;;;;12.43;10.60;;;;;;;;;;5466025;26;20006;-72
2024/04/08 12:12:09;;;;;;;14.32;9.18;;;;;;;;;;5461135;26;20466;-73
2024/04/08 12:14:35;;;;;;;10.43;6.83;;;;;;;;;;5477916;26;20494;-72
2024/04/08 12:17:03;;;;;;;11.40;7.85;;;;;;;;;;5469701;26;20730;-72
2024/04/08 12:19:29;;;;;;;12.23;8.40;;;;;;;;;;5472445;26;20002;-72
2024/04/08 12:21:56;;;;;;;10.15;8.80;;;;;;;;;;5478069;26;19997;-72
2024/04/08 12:24:22;;;;;;;10.05;8.38;;;;;;;;;;5430934;26;20013;-72
2024/04/08 12:26:49;;;;;;;10.20;7.22;;;;;;;;;;5472510;26;20016;-72
2024/04/08 12:29:16;;;;;;;9.63;6.57;;;;;;;;;;5467685;26;20006;-72
2024/04/08 12:31:42;;;;;;;9.07;6.03;;;;;;;;;;5476238;26;19998;-72
2024/04/08 12:34:09;;;;;;;8.85;5.43;;;;;;;;;;5464547;26;19998;-72
2024/04/08 12:36:35;;;;;;;7.15;5.40;;;;;;;;;;5439944;26;20522;-72
2024/04/08 12:39:02;;;;;;;7.13;5.00;;;;;;;;;;5433640;26;20003;-72
2024/04/08 12:41:29;;;;;;;7.93;5.20;;;;;;;;;;5447866;26;20002;-71
2024/04/08 12:43:56;;;;;;;9.10;5.22;;;;;;;;;;5473991;26;20901;-71
2024/04/08 12:46:22;;;;;;;7.28;4.70;;;;;;;;;;5457589;26;20081;-72
2024/04/08 12:48:49;;;;;;;9.05;5.65;;;;;;;;;;5460677;26;20018;-71
2024/04/08 12:51:16;;;;;;;7.32;4.57;;;;;;;;;;5471734;26;20014;-72
2024/04/08 12:53:44;;;;;;;8.15;6.32;;;;;;;;;;5462452;26;20012;-71
2024/04/08 12:56:11;;;;;;;10.45;6.13;;;;;;;;;;5477450;26;20520;-71
2024/04/08 12:58:38;;;;;;;8.53;5.53;;;;;;;;;;5468794;26;20005;-72
2024/04/08 13:01:04;;;;;;;6.65;5.80;;;;;;;;;;5437282;26;20263;-73
2024/04/08 13:03:30;;;;;;;8.60;7.35;;;;;;;;;;5458316;26;20010;-71
2024/04/08 13:05:57;;;;;;;9.13;7.15;;;;;;;;;;5463211;26;19999;-72
2024/04/08 13:08:24;;;;;;;9.35;6.60;;;;;;;;;;5469415;26;21185;-72
2024/04/08 13:10:50;;;;;;;9.32;5.97;;;;;;;;;;5462312;26;20020;-72
2024/04/08 13:13:17;;;;;;;8.30;4.75;;;;;;;;;;5475507;26;20094;-72
2024/04/08 13:15:43;;;;;;;9.23;5.20;;;;;;;;;;5466633;26;20015;-71
2024/04/08 13:18:10;;;;;;;10.10;4.93;;;;;;;;;;5427305;26;20074;-71
2024/04/08 13:20:36;;;;;;;8.30;5.50;;;;;;;;;;5465461;26;20006;-72
2024/04/08 13:23:03;;;;;;;10.43;6.00;;;;;;;;;;5427947;26;19998;-71
2024/04/08 13:25:30;;;;;;;7.03;5.38;;;;;;;;;;5469123;26;19998;-72
2024/04/08 13:27:59;;;;;;;9.13;5.95;;;;;;;;;;5439773;26;20520;-72
2024/04/08 13:30:26;;;;;;;9.45;5.22;;;;;;;;;;5429524;26;20107;-71
2024/04/08 13:32:52;;;;;;;8.80;5.70;;;;;;;;;;5472078;26;20025;-72
2024/04/08 13:35:20;;;;;;;6.22;5.53;;;;;;;;;;5426777;26;20051;-71
2024/04/08 13:37:46;;;;;;;9.30;5.47;;;;;;;;;;5472367;26;20009;-72
2024/04/08 13:40:13;;;;;;;8.68;6.15;;;;;;;;;;5453307;26;20017;-71
2024/04/08 13:42:41;;;;;;;8.75;5.80;;;;;;;;;;5464130;26;20414;-71
2024/04/08 13:45:07;;;;;;;12.38;6.75;;;;;;;;;;5441967;26;20009;-71
2024/04/08 13:47:34;;;;;;;7.97;5.78;;;;;;;;;;5459169;26;20082;-72
2024/04/08 13:50:00;;;;;;;8.40;5.95;;;;;;;;;;5432046;26;20031;-71
2024/04/08 13:52:27;;;;;;;10.02;7.07;;;;;;;;;;5464743;26;19994;-71
2024/04/08 13:54:53;;;;;;;8.93;6.78;;;;;;;;;;5475438;26;20006;-71
2024/04/08 13:57:20;;;;;;;10.07;7.70;;;;;;;;;;5466146;26;19999;-72
2024/04/08 13:59:47;;;;;;;11.57;8.15;;;;;;;;;;5435530;26;20589;-71
2024/04/08 14:02:14;;;;;;;10.27;7.60;;;;;;;;;;5467561;26;19998;-71
2024/04/08 14:04:40;;;;;;;12.87;8.77;;;;;;;;;;5457440;26;20014;-72
2024/04/08 14:07:07;;;;;;;11.13;8.20;;;;;;;;;;5427296;26;20235;-71
2024/04/08 14:09:34;;;;;;;13.18;9.35;;;;;;;;;;5472144;26;20006;-72
2024/04/08 14:12:00;;;;;;;14.02;11.10;;;;;;;;;;5435356;26;19999;-71
2024/04/08 14:14:27;;;;;;;13.55;9.65;;;;;;;;;;5464967;26;20014;-71
2024/04/08 14:16:53;;;;;;;11.68;9.05;;;;;;;;;;5458365;26;20006;-73
2024/04/08 14:19:20;;;;;;;13.90;8.30;;;;;;;;;;5459240;26;20070;-71
2024/04/08 14:21:46;;;;;;;12.38;7.90;;;;;;;;;;5446436;26;20083;-72
2024/04/08 14:24:13;;;;;;;13.30;10.00;;;;;;;;;;5470799;26;20002;-72
2024/04/08 14:26:39;;;;;;;10.35;6.80;;;;;;;;;;5473449;26;20018;-72
2024/04/08 14:29:06;;;;;;;10.07;7.03;;;;;;;;;;5431296;26;20334;-71
2024/04/08 14:31:37;;;;;;;12.45;8.00;;;;;;;;;;5460922;26;20090;-72
2024/04/08 14:34:03;;;;;;;11.55;8.15;;;;;;;;;;5428657;26;19999;-72
2024/04/08 14:36:30;;;;;;;12.73;7.78;;;;;;;;;;5469917;26;20014;-72
2024/04/08 14:38:57;;;;;;;10.70;7.97;;;;;;;;;;5451510;26;20010;-72
2024/04/08 14:41:43;;;;;;;10.82;7.50;;;;;;;;;;5448340;26;20006;-72